sensor_id;sensor_type;location;lat;lon;timestamp;pressure;altitude;pressure_sealevel;temperature;humidity
13348;BME280;6743;49.934;9.138;2023-11-19T00:00:31;100243.63;;;7.72;100.00
13348;BME280;6743;49.934;9.138;2023-11-19T00:02:57;100254.88;;;7.74;100.00
13348;BME280;6743;49.934;9.138;2023-11-19T00:05:23;100248.59;;;7.75;100.00
13348;BME280;6743;49.934;9.138;2023-11-19T00:07:49;100237.91;;;7.77;100.00
13348;BME280;6743;49.934;9.138;2023-11-19T00:10:16;100230.81;;;7.77;100.00
13348;BME280;6743;49.934;9.138;2023-11-19T00:12:45;100226.34;;;7.78;100.00
13348;BME280;6743;49.934;9.138;2023-11-19T00:15:12;100222.75;;;7.79;100.00
13348;BME280;6743;49.934;9.138;2023-11-19T00:17:38;100218.16;;;7.81;100.00
13348;BME280;6743;49.934;9.138;2023-11-19T00:20:07;100228.72;;;7.81;100.00
13348;BME280;6743;49.934;9.138;2023-11-19T00:22:33;100218.16;;;7.81;100.00
13348;BME280;6743;49.934;9.138;2023-11-19T00:24:59;100211.88;;;7.82;100.00
13348;BME280;6743;49.934;9.138;2023-11-19T00:27:25;100213.53;;;7.83;100.00
13348;BME280;6743;49.934;9.138;2023-11-19T00:29:52;100217.97;;;7.82;100.00
13348;BME280;6743;49.934;9.138;2023-11-19T00:32:18;100218.53;;;7.86;100.00
13348;BME280;6743;49.934;9.138;2023-11-19T00:34:44;100225.47;;;7.87;100.00
13348;BME280;6743;49.934;9.138;2023-11-19T00:37:10;100223.50;;;7.89;100.00
13348;BME280;6743;49.934;9.138;2023-11-19T00:39:36;100220.72;;;7.90;100.00
13348;BME280;6743;49.934;9.138;2023-11-19T00:42:03;100210.97;;;7.91;100.00
13348;BME280;6743;49.934;9.138;2023-11-19T00:44:29;100217.78;;;7.94;100.00
13348;BME280;6743;49.934;9.138;2023-11-19T00:46:55;100222.09;;;7.95;100.00
13348;BME280;6743;49.934;9.138;2023-11-19T00:49:21;100222.75;;;7.97;100.00
13348;BME280;6743;49.934;9.138;2023-11-19T00:51:47;100219.97;;;7.98;100.00
13348;BME280;6743;49.934;9.138;2023-11-19T00:54:13;100208.44;;;7.99;100.00
13348;BME280;6743;49.934;9.138;2023-11-19T00:56:39;100203.84;;;8.01;100.00
13348;BME280;6743;49.934;9.138;2023-11-19T00:59:05;100198.56;;;8.01;100.00
13348;BME280;6743;49.934;9.138;2023-11-19T01:01:31;100194.91;;;8.02;100.00
13348;BME280;6743;49.934;9.138;2023-11-19T01:03:57;100192.97;;;8.04;100.00
13348;BME280;6743;49.934;9.138;2023-11-19T01:06:27;100190.41;;;7.95;100.00
13348;BME280;6743;49.934;9.138;2023-11-19T01:08:53;100211.16;;;8.07;100.00
13348;BME280;6743;49.934;9.138;2023-11-19T01:11:21;100213.66;;;8.09;100.00
13348;BME280;6743;49.934;9.138;2023-11-19T01:13:47;100206.53;;;8.09;100.00
13348;BME280;6743;49.934;9.138;2023-11-19T01:16:13;100195.16;;;8.09;100.00
13348;BME280;6743;49.934;9.138;2023-11-19T01:18:39;100190.53;;;8.11;100.00
13348;BME280;6743;49.934;9.138;2023-11-19T01:21:05;100183.44;;;8.11;100.00
13348;BME280;6743;49.934;9.138;2023-11-19T01:23:31;100200.97;;;8.12;100.00
13348;BME280;6743;49.934;9.138;2023-11-19T01:25:58;100197.34;;;8.13;100.00
13348;BME280;6743;49.934;9.138;2023-11-19T01:28:24;100203.47;;;8.14;100.00
13348;BME280;6743;49.934;9.138;2023-11-19T01:30:50;100211.25;;;8.15;100.00
13348;BME280;6743;49.934;9.138;2023-11-19T01:33:16;100208.59;;;8.15;100.00
13348;BME280;6743;49.934;9.138;2023-11-19T01:35:42;100214.56;;;8.17;100.00
13348;BME280;6743;49.934;9.138;2023-11-19T01:38:08;100207.59;;;8.16;100.00
13348;BME280;6743;49.934;9.138;2023-11-19T01:40:34;100196.22;;;8.16;100.00
13348;BME280;6743;49.934;9.138;2023-11-19T01:43:02;100186.25;;;8.10;100.00
13348;BME280;6743;49.934;9.138;2023-11-19T01:45:30;100157.50;;;8.07;100.00
13348;BME280;6743;49.934;9.138;2023-11-19T01:47:56;100166.00;;;8.18;100.00
13348;BME280;6743;49.934;9.138;2023-11-19T01:50:23;100178.75;;;8.23;100.00
13348;BME280;6743;49.934;9.138;2023-11-19T01:52:50;100166.37;;;8.23;100.00
13348;BME280;6743;49.934;9.138;2023-11-19T01:55:16;100154.97;;;8.23;100.00
13348;BME280;6743;49.934;9.138;2023-11-19T01:57:42;100149.69;;;8.23;100.00
13348;BME280;6743;49.934;9.138;2023-11-19T02:00:09;100126.44;;;8.26;100.00
13348;BME280;6743;49.934;9.138;2023-11-19T02:02:47;100114.22;;;8.25;100.00
13348;BME280;6743;49.934;9.138;2023-11-19T02:05:13;100101.53;;;8.29;100.00
13348;BME280;6743;49.934;9.138;2023-11-19T02:07:40;100110.28;;;8.29;100.00
13348;BME280;6743;49.934;9.138;2023-11-19T02:10:07;100127.81;;;8.30;100.00
13348;BME280;6743;49.934;9.138;2023-11-19T02:12:33;100138.25;;;8.32;100.00
13348;BME280;6743;49.934;9.138;2023-11-19T02:14:59;100120.56;;;8.33;100.00
13348;BME280;6743;49.934;9.138;2023-11-19T02:17:25;100127.53;;;8.34;100.00
13348;BME280;6743;49.934;9.138;2023-11-19T02:19:52;100129.19;;;8.35;100.00
13348;BME280;6743;49.934;9.138;2023-11-19T02:22:18;100098.22;;;8.27;100.00
13348;BME280;6743;49.934;9.138;2023-11-19T02:24:46;100116.34;;;8.40;100.00
13348;BME280;6743;49.934;9.138;2023-11-19T02:27:17;100112.84;;;8.39;100.00
13348;BME280;6743;49.934;9.138;2023-11-19T02:29:47;100115.34;;;8.41;100.00
13348;BME280;6743;49.934;9.138;2023-11-19T02:32:15;100109.09;;;8.42;100.00
13348;BME280;6743;49.934;9.138;2023-11-19T02:34:41;100098.53;;;8.42;100.00
13348;BME280;6743;49.934;9.138;2023-11-19T02:37:07;100096.53;;;8.44;100.00
13348;BME280;6743;49.934;9.138;2023-11-19T02:39:33;100093.72;;;8.45;100.00
13348;BME280;6743;49.934;9.138;2023-11-19T02:41:59;100085.81;;;8.45;100.00
13348;BME280;6743;49.934;9.138;2023-11-19T02:44:25;100071.75;;;8.45;100.00
13348;BME280;6743;49.934;9.138;2023-11-19T02:46:54;100062.00;;;8.45;100.00
13348;BME280;6743;49.934;9.138;2023-11-19T02:52:09;100070.78;;;8.46;100.00
13348;BME280;6743;49.934;9.138;2023-11-19T02:54:35;100069.66;;;8.48;100.00
13348;BME280;6743;49.934;9.138;2023-11-19T02:57:02;100071.31;;;8.49;100.00
13348;BME280;6743;49.934;9.138;2023-11-19T02:59:30;100074.59;;;8.51;100.00
13348;BME280;6743;49.934;9.138;2023-11-19T03:02:05;100082.38;;;8.53;100.00
13348;BME280;6743;49.934;9.138;2023-11-19T03:04:32;100073.47;;;8.54;100.00
13348;BME280;6743;49.934;9.138;2023-11-19T03:06:58;100069.84;;;8.55;100.00
13348;BME280;6743;49.934;9.138;2023-11-19T03:09:24;100058.28;;;8.56;100.00
13348;BME280;6743;49.934;9.138;2023-11-19T03:11:50;100042.44;;;8.56;100.00
13348;BME280;6743;49.934;9.138;2023-11-19T03:14:16;100033.34;;;8.58;100.00
13348;BME280;6743;49.934;9.138;2023-11-19T03:16:44;100043.91;;;8.58;100.00
13348;BME280;6743;49.934;9.138;2023-11-19T03:19:12;100049.03;;;8.60;100.00
13348;BME280;6743;49.934;9.138;2023-11-19T03:21:38;100055.84;;;8.62;100.00
13348;BME280;6743;49.934;9.138;2023-11-19T03:24:04;100042.44;;;8.56;100.00
13348;BME280;6743;49.934;9.138;2023-11-19T03:26:30;100014.28;;;8.47;100.00
13348;BME280;6743;49.934;9.138;2023-11-19T03:28:56;100044.78;;;8.67;100.00
13348;BME280;6743;49.934;9.138;2023-11-19T03:31:22;100036.69;;;8.68;100.00
13348;BME280;6743;49.934;9.138;2023-11-19T03:33:48;100047.13;;;8.70;100.00
13348;BME280;6743;49.934;9.138;2023-11-19T03:36:15;100031.09;;;8.72;100.00
13348;BME280;6743;49.934;9.138;2023-11-19T03:38:41;100033.41;;;8.75;100.00
13348;BME280;6743;49.934;9.138;2023-11-19T03:41:11;100026.31;;;8.75;100.00
13348;BME280;6743;49.934;9.138;2023-11-19T03:43:37;100023.34;;;8.78;100.00
13348;BME280;6743;49.934;9.138;2023-11-19T03:46:03;100013.44;;;8.80;100.00
13348;BME280;6743;49.934;9.138;2023-11-19T03:48:30;100011.47;;;8.82;100.00
13348;BME280;6743;49.934;9.138;2023-11-19T03:50:56;100019.25;;;8.84;100.00
13348;BME280;6743;49.934;9.138;2023-11-19T03:53:23;100016.44;;;8.85;100.00
13348;BME280;6743;49.934;9.138;2023-11-19T03:55:50;100010.00;;;8.88;100.00
13348;BME280;6743;49.934;9.138;2023-11-19T03:58:15;100008.88;;;8.90;100.00
13348;BME280;6743;49.934;9.138;2023-11-19T04:00:41;100003.06;;;8.87;100.00
13348;BME280;6743;49.934;9.138;2023-11-19T04:03:07;100006.06;;;8.92;100.00
13348;BME280;6743;49.934;9.138;2023-11-19T04:05:33;100007.69;;;8.93;100.00
13348;BME280;6743;49.934;9.138;2023-11-19T04:07:59;100009.22;;;8.95;100.00
13348;BME280;6743;49.934;9.138;2023-11-19T04:10:26;100011.69;;;8.97;100.00
13348;BME280;6743;49.934;9.138;2023-11-19T04:12:52;100006.25;;;8.98;100.00
13348;BME280;6743;49.934;9.138;2023-11-19T04:15:18;100001.59;;;9.00;100.00
13348;BME280;6743;49.934;9.138;2023-11-19T04:17:44;99997.00;;;9.02;100.00
13348;BME280;6743;49.934;9.138;2023-11-19T04:20:11;100005.75;;;9.03;100.00
13348;BME280;6743;49.934;9.138;2023-11-19T04:22:38;100007.25;;;9.05;100.00
13348;BME280;6743;49.934;9.138;2023-11-19T04:25:05;100006.59;;;9.03;100.00
13348;BME280;6743;49.934;9.138;2023-11-19T04:27:32;100007.75;;;9.09;100.00
13348;BME280;6743;49.934;9.138;2023-11-19T04:29:58;100008.44;;;9.11;100.00
13348;BME280;6743;49.934;9.138;2023-11-19T04:32:25;100006.44;;;9.13;100.00
13348;BME280;6743;49.934;9.138;2023-11-19T04:34:52;100000.84;;;9.16;100.00
13348;BME280;6743;49.934;9.138;2023-11-19T04:37:18;99991.91;;;9.17;100.00
13348;BME280;6743;49.934;9.138;2023-11-19T04:39:44;99940.87;;;8.83;100.00
13348;BME280;6743;49.934;9.138;2023-11-19T04:42:11;99996.38;;;9.17;100.00
13348;BME280;6743;49.934;9.138;2023-11-19T04:44:38;99945.69;;;8.87;100.00
13348;BME280;6743;49.934;9.138;2023-11-19T04:47:04;99996.38;;;9.17;100.00
13348;BME280;6743;49.934;9.138;2023-11-19T04:49:30;99994.56;;;9.17;100.00
13348;BME280;6743;49.934;9.138;2023-11-19T04:51:56;99993.72;;;9.17;100.00
13348;BME280;6743;49.934;9.138;2023-11-19T04:54:22;99995.53;;;9.16;100.00
13348;BME280;6743;49.934;9.138;2023-11-19T04:56:49;99994.41;;;9.19;100.00
13348;BME280;6743;49.934;9.138;2023-11-19T04:59:15;99987.44;;;9.18;100.00
13348;BME280;6743;49.934;9.138;2023-11-19T05:01:46;99991.75;;;9.19;100.00
13348;BME280;6743;49.934;9.138;2023-11-19T05:04:12;99967.06;;;9.02;100.00
13348;BME280;6743;49.934;9.138;2023-11-19T05:06:38;99989.25;;;9.17;100.00
13348;BME280;6743;49.934;9.138;2023-11-19T05:09:04;99989.25;;;9.17;100.00
13348;BME280;6743;49.934;9.138;2023-11-19T05:11:33;99981.31;;;9.17;100.00
13348;BME280;6743;49.934;9.138;2023-11-19T05:13:59;99986.44;;;9.11;100.00
13348;BME280;6743;49.934;9.138;2023-11-19T05:16:25;99982.62;;;9.13;100.00
13348;BME280;6743;49.934;9.138;2023-11-19T05:18:52;99954.47;;;8.96;100.00
13348;BME280;6743;49.934;9.138;2023-11-19T05:21:18;99919.88;;;8.81;100.00
13348;BME280;6743;49.934;9.138;2023-11-19T05:23:44;99980.50;;;9.17;100.00
13348;BME280;6743;49.934;9.138;2023-11-19T05:26:17;99982.97;;;9.18;100.00
13348;BME280;6743;49.934;9.138;2023-11-19T05:28:44;99982.97;;;9.18;100.00
13348;BME280;6743;49.934;9.138;2023-11-19T05:31:10;99984.44;;;9.21;100.00
13348;BME280;6743;49.934;9.138;2023-11-19T05:33:36;99990.41;;;9.23;100.00
13348;BME280;6743;49.934;9.138;2023-11-19T05:36:03;99987.63;;;9.24;100.00
13348;BME280;6743;49.934;9.138;2023-11-19T05:38:30;99980.50;;;9.25;100.00
13348;BME280;6743;49.934;9.138;2023-11-19T05:40:55;99971.91;;;9.23;100.00
13348;BME280;6743;49.934;9.138;2023-11-19T05:43:21;99984.81;;;9.26;100.00
13348;BME280;6743;49.934;9.138;2023-11-19T05:45:47;99986.63;;;9.25;100.00
13348;BME280;6743;49.934;9.138;2023-11-19T05:48:13;99982.81;;;9.28;100.00
13348;BME280;6743;49.934;9.138;2023-11-19T05:50:39;99977.53;;;9.28;100.00
13348;BME280;6743;49.934;9.138;2023-11-19T05:53:06;99969.25;;;9.31;100.00
13348;BME280;6743;49.934;9.138;2023-11-19T05:55:36;99957.84;;;9.30;100.00
13348;BME280;6743;49.934;9.138;2023-11-19T05:58:10;99953.69;;;9.20;100.00
13348;BME280;6743;49.934;9.138;2023-11-19T06:00:37;99982.16;;;9.34;100.00
13348;BME280;6743;49.934;9.138;2023-11-19T06:03:03;99986.47;;;9.35;100.00
13348;BME280;6743;49.934;9.138;2023-11-19T06:05:29;99978.37;;;9.36;100.00
13348;BME280;6743;49.934;9.138;2023-11-19T06:07:55;99969.44;;;9.37;100.00
13348;BME280;6743;49.934;9.138;2023-11-19T06:10:23;99978.69;;;9.41;100.00
13348;BME280;6743;49.934;9.138;2023-11-19T06:12:54;99977.87;;;9.49;100.00
13348;BME280;6743;49.934;9.138;2023-11-19T06:15:22;99958.03;;;9.53;100.00
13348;BME280;6743;49.934;9.138;2023-11-19T06:17:48;99963.66;;;9.58;100.00
13348;BME280;6743;49.934;9.138;2023-11-19T06:20:14;99965.16;;;9.61;100.00
13348;BME280;6743;49.934;9.138;2023-11-19T06:22:40;99939.97;;;9.57;100.00
13348;BME280;6743;49.934;9.138;2023-11-19T06:25:08;99964.13;;;9.62;100.00
13348;BME280;6743;49.934;9.138;2023-11-19T06:27:35;99956.69;;;9.65;100.00
13348;BME280;6743;49.934;9.138;2023-11-19T06:30:01;99962.69;;;9.67;100.00
13348;BME280;6743;49.934;9.138;2023-11-19T06:32:27;99960.03;;;9.67;100.00
13348;BME280;6743;49.934;9.138;2023-11-19T06:34:53;99954.38;;;9.70;100.00
13348;BME280;6743;49.934;9.138;2023-11-19T06:37:19;99959.50;;;9.72;100.00
13348;BME280;6743;49.934;9.138;2023-11-19T06:39:45;99955.72;;;9.74;100.00
13348;BME280;6743;49.934;9.138;2023-11-19T06:42:11;99951.25;;;9.75;100.00
13348;BME280;6743;49.934;9.138;2023-11-19T06:44:37;99949.59;;;9.74;100.00
13348;BME280;6743;49.934;9.138;2023-11-19T06:47:04;99945.13;;;9.74;100.00
13348;BME280;6743;49.934;9.138;2023-11-19T06:49:30;99955.72;;;9.74;100.00
13348;BME280;6743;49.934;9.138;2023-11-19T06:51:56;99951.88;;;9.77;100.00
13348;BME280;6743;49.934;9.138;2023-11-19T06:54:22;99957.69;;;9.88;100.00
13348;BME280;6743;49.934;9.138;2023-11-19T06:56:48;99973.75;;;9.95;100.00
13348;BME280;6743;49.934;9.138;2023-11-19T06:59:14;99958.47;;;10.05;100.00
13348;BME280;6743;49.934;9.138;2023-11-19T07:01:41;99972.56;;;10.22;100.00
13348;BME280;6743;49.934;9.138;2023-11-19T07:04:10;99959.94;;;10.24;100.00
13348;BME280;6743;49.934;9.138;2023-11-19T07:06:36;99970.91;;;10.29;100.00
13348;BME280;6743;49.934;9.138;2023-11-19T07:09:03;99962.41;;;10.34;100.00
13348;BME280;6743;49.934;9.138;2023-11-19T07:11:35;99968.88;;;10.39;100.00
13348;BME280;6743;49.934;9.138;2023-11-19T07:14:01;99959.91;;;10.40;100.00
13348;BME280;6743;49.934;9.138;2023-11-19T07:16:27;99972.63;;;10.53;100.00
13348;BME280;6743;49.934;9.138;2023-11-19T07:22:30;99979.44;;;10.55;100.00
13348;BME280;6743;49.934;9.138;2023-11-19T07:31:45;99990.34;;;10.60;100.00
13348;BME280;6743;49.934;9.138;2023-11-19T07:34:32;99956.94;;;10.43;100.00
13348;BME280;6743;49.934;9.138;2023-11-19T07:37:14;100001.09;;;10.67;100.00
13348;BME280;6743;49.934;9.138;2023-11-19T07:39:42;99997.44;;;10.68;100.00
13348;BME280;6743;49.934;9.138;2023-11-19T07:42:09;99978.87;;;10.68;100.00
13348;BME280;6743;49.934;9.138;2023-11-19T07:44:35;99976.38;;;10.66;100.00
13348;BME280;6743;49.934;9.138;2023-11-19T07:47:02;99974.09;;;10.63;100.00
13348;BME280;6743;49.934;9.138;2023-11-19T07:49:28;99983.22;;;10.61;100.00
13348;BME280;6743;49.934;9.138;2023-11-19T07:51:56;99984.72;;;10.63;100.00
13348;BME280;6743;49.934;9.138;2023-11-19T07:54:22;99989.66;;;10.66;100.00
13348;BME280;6743;49.934;9.138;2023-11-19T07:56:48;99990.16;;;10.70;100.00
13348;BME280;6743;49.934;9.138;2023-11-19T07:59:16;99985.31;;;10.74;100.00
13348;BME280;6743;49.934;9.138;2023-11-19T08:01:44;99979.69;;;10.77;100.00
13348;BME280;6743;49.934;9.138;2023-11-19T08:04:10;99964.59;;;10.77;100.00
13348;BME280;6743;49.934;9.138;2023-11-19T08:06:36;99977.66;;;10.79;100.00
13348;BME280;6743;49.934;9.138;2023-11-19T08:09:03;99969.38;;;10.82;100.00
13348;BME280;6743;49.934;9.138;2023-11-19T08:11:29;99976.16;;;10.84;100.00
13348;BME280;6743;49.934;9.138;2023-11-19T08:13:56;99964.56;;;10.85;100.00
13348;BME280;6743;49.934;9.138;2023-11-19T08:16:22;99961.91;;;10.85;100.00
13348;BME280;6743;49.934;9.138;2023-11-19T08:18:49;99970.66;;;10.86;100.00
13348;BME280;6743;49.934;9.138;2023-11-19T08:21:16;99974.34;;;10.85;100.00
13348;BME280;6743;49.934;9.138;2023-11-19T08:23:42;99930.28;;;10.68;100.00
13348;BME280;6743;49.934;9.138;2023-11-19T08:26:08;99971.47;;;10.86;100.00
13348;BME280;6743;49.934;9.138;2023-11-19T08:28:35;99980.28;;;10.87;100.00
13348;BME280;6743;49.934;9.138;2023-11-19T08:31:02;99990.88;;;10.87;100.00
13348;BME280;6743;49.934;9.138;2023-11-19T08:33:29;99975.50;;;10.82;100.00
13348;BME280;6743;49.934;9.138;2023-11-19T08:35:55;99989.69;;;10.97;100.00
13348;BME280;6743;49.934;9.138;2023-11-19T08:38:21;99981.38;;;11.00;100.00
13348;BME280;6743;49.934;9.138;2023-11-19T08:40:47;99976.38;;;11.05;100.00
13348;BME280;6743;49.934;9.138;2023-11-19T08:43:13;99976.50;;;11.12;100.00
13348;BME280;6743;49.934;9.138;2023-11-19T08:45:39;99980.94;;;11.20;100.00
13348;BME280;6743;49.934;9.138;2023-11-19T08:48:06;99963.09;;;11.28;100.00
13348;BME280;6743;49.934;9.138;2023-11-19T08:50:32;99971.19;;;11.35;100.00
13348;BME280;6743;49.934;9.138;2023-11-19T08:52:58;99961.72;;;11.40;100.00
13348;BME280;6743;49.934;9.138;2023-11-19T08:55:24;99972.47;;;11.47;100.00
13348;BME280;6743;49.934;9.138;2023-11-19T08:57:51;99945.59;;;11.42;100.00
13348;BME280;6743;49.934;9.138;2023-11-19T09:00:18;99979.19;;;11.58;100.00
13348;BME280;6743;49.934;9.138;2023-11-19T09:02:44;99984.97;;;11.61;100.00
13348;BME280;6743;49.934;9.138;2023-11-19T09:05:11;99994.06;;;11.67;100.00
13348;BME280;6743;49.934;9.138;2023-11-19T09:07:38;99999.47;;;11.73;100.00
13348;BME280;6743;49.934;9.138;2023-11-19T09:10:05;100006.78;;;11.79;100.00
13348;BME280;6743;49.934;9.138;2023-11-19T09:12:31;100020.53;;;11.83;100.00
13348;BME280;6743;49.934;9.138;2023-11-19T09:14:57;100029.44;;;11.90;100.00
13348;BME280;6743;49.934;9.138;2023-11-19T09:17:23;100041.66;;;11.99;100.00
13348;BME280;6743;49.934;9.138;2023-11-19T09:19:49;100051.94;;;12.02;100.00
13348;BME280;6743;49.934;9.138;2023-11-19T09:22:16;100067.91;;;12.02;100.00
13348;BME280;6743;49.934;9.138;2023-11-19T09:24:42;100080.94;;;12.12;100.00
13348;BME280;6743;49.934;9.138;2023-11-19T09:27:09;100082.13;;;12.09;100.00
13348;BME280;6743;49.934;9.138;2023-11-19T09:29:35;100100.91;;;12.08;100.00
13348;BME280;6743;49.934;9.138;2023-11-19T09:32:01;100105.69;;;12.12;100.00
13348;BME280;6743;49.934;9.138;2023-11-19T09:34:27;100104.69;;;12.13;100.00
13348;BME280;6743;49.934;9.138;2023-11-19T09:36:54;100087.97;;;12.05;100.00
13348;BME280;6743;49.934;9.138;2023-11-19T09:39:20;100099.03;;;12.16;100.00
13348;BME280;6743;49.934;9.138;2023-11-19T09:41:46;100100.31;;;12.20;100.00
13348;BME280;6743;49.934;9.138;2023-11-19T09:44:13;100101.97;;;12.21;100.00
13348;BME280;6743;49.934;9.138;2023-11-19T09:46:41;100103.81;;;12.21;100.00
13348;BME280;6743;49.934;9.138;2023-11-19T09:49:08;100111.13;;;12.19;100.00
13348;BME280;6743;49.934;9.138;2023-11-19T09:51:36;100115.28;;;12.21;100.00
13348;BME280;6743;49.934;9.138;2023-11-19T09:54:02;100112.44;;;12.23;100.00
13348;BME280;6743;49.934;9.138;2023-11-19T09:56:29;100117.56;;;12.24;100.00
13348;BME280;6743;49.934;9.138;2023-11-19T09:58:55;100102.25;;;12.27;100.00
13348;BME280;6743;49.934;9.138;2023-11-19T10:01:21;100110.50;;;12.32;100.00
13348;BME280;6743;49.934;9.138;2023-11-19T10:03:47;100113.28;;;12.38;100.00
13348;BME280;6743;49.934;9.138;2023-11-19T10:06:15;100114.78;;;12.41;100.00
13348;BME280;6743;49.934;9.138;2023-11-19T10:08:41;100117.09;;;12.44;100.00
13348;BME280;6743;49.934;9.138;2023-11-19T10:11:08;100128.00;;;12.49;100.00
13348;BME280;6743;49.934;9.138;2023-11-19T10:13:37;100134.09;;;12.57;100.00
13348;BME280;6743;49.934;9.138;2023-11-19T10:16:06;100074.94;;;12.33;100.00
13348;BME280;6743;49.934;9.138;2023-11-19T10:18:32;100127.66;;;12.67;100.00
13348;BME280;6743;49.934;9.138;2023-11-19T10:21:03;100118.78;;;12.74;100.00
13348;BME280;6743;49.934;9.138;2023-11-19T10:23:29;100123.56;;;12.79;100.00
13348;BME280;6743;49.934;9.138;2023-11-19T10:26:02;100126.03;;;12.80;100.00
13348;BME280;6743;49.934;9.138;2023-11-19T10:28:39;100125.84;;;12.82;100.00
13348;BME280;6743;49.934;9.138;2023-11-19T10:31:05;100134.66;;;12.82;100.00
13348;BME280;6743;49.934;9.138;2023-11-19T10:33:32;100131.44;;;12.87;100.00
13348;BME280;6743;49.934;9.138;2023-11-19T10:35:58;100132.75;;;12.91;100.00
13348;BME280;6743;49.934;9.138;2023-11-19T10:38:25;100137.69;;;12.94;100.00
13348;BME280;6743;49.934;9.138;2023-11-19T10:40:52;100123.47;;;12.87;100.00
13348;BME280;6743;49.934;9.138;2023-11-19T10:43:19;100138.81;;;12.99;100.00
13348;BME280;6743;49.934;9.138;2023-11-19T10:45:47;100136.94;;;13.00;100.00
13348;BME280;6743;49.934;9.138;2023-11-19T10:48:13;100138.81;;;12.99;100.00
13348;BME280;6743;49.934;9.138;2023-11-19T10:50:41;100144.75;;;13.01;100.00
13348;BME280;6743;49.934;9.138;2023-11-19T10:53:08;100140.28;;;13.02;100.00
13348;BME280;6743;49.934;9.138;2023-11-19T10:55:35;100150.09;;;13.01;100.00
13348;BME280;6743;49.934;9.138;2023-11-19T10:58:04;100140.66;;;12.99;100.00
13348;BME280;6743;49.934;9.138;2023-11-19T11:00:36;100143.31;;;12.99;100.00
13348;BME280;6743;49.934;9.138;2023-11-19T11:03:10;100127.50;;;12.97;100.00
13348;BME280;6743;49.934;9.138;2023-11-19T11:05:37;100134.84;;;12.95;100.00
13348;BME280;6743;49.934;9.138;2023-11-19T11:08:06;100127.25;;;12.92;100.00
13348;BME280;6743;49.934;9.138;2023-11-19T11:10:36;100118.03;;;12.95;100.00
13348;BME280;6743;49.934;9.138;2023-11-19T11:13:05;100126.03;;;12.95;100.00
13348;BME280;6743;49.934;9.138;2023-11-19T11:15:31;100110.44;;;12.92;100.00
13348;BME280;6743;49.934;9.138;2023-11-19T11:18:00;100090.78;;;12.78;100.00
13348;BME280;6743;49.934;9.138;2023-11-19T11:20:30;100090.12;;;12.76;100.00
13348;BME280;6743;49.934;9.138;2023-11-19T11:23:19;100110.16;;;12.87;100.00
13348;BME280;6743;49.934;9.138;2023-11-19T11:25:56;100113.00;;;12.85;100.00
13348;BME280;6743;49.934;9.138;2023-11-19T11:28:30;100107.22;;;12.82;100.00
13348;BME280;6743;49.934;9.138;2023-11-19T11:31:09;100101.22;;;12.80;100.00
13348;BME280;6743;49.934;9.138;2023-11-19T11:33:53;100104.09;;;12.78;100.00
13348;BME280;6743;49.934;9.138;2023-11-19T11:36:26;100101.63;;;12.77;100.00
13348;BME280;6743;49.934;9.138;2023-11-19T11:38:53;100095.72;;;12.67;100.00
13348;BME280;6743;49.934;9.138;2023-11-19T11:41:20;100096.53;;;12.67;100.00
13348;BME280;6743;49.934;9.138;2023-11-19T11:43:49;100104.28;;;12.77;100.00
13348;BME280;6743;49.934;9.138;2023-11-19T11:49:25;100110.88;;;12.81;100.00
13348;BME280;6743;49.934;9.138;2023-11-19T11:52:02;100110.69;;;12.82;100.00
13348;BME280;6743;49.934;9.138;2023-11-19T11:54:32;100106.66;;;12.86;100.00
13348;BME280;6743;49.934;9.138;2023-11-19T11:57:03;100104.63;;;12.88;100.00
13348;BME280;6743;49.934;9.138;2023-11-19T11:59:37;100072.69;;;12.74;100.00
13348;BME280;6743;49.934;9.138;2023-11-19T12:02:03;100094.00;;;12.88;100.00
13348;BME280;6743;49.934;9.138;2023-11-19T12:04:29;100098.31;;;12.89;100.00
13348;BME280;6743;49.934;9.138;2023-11-19T12:07:06;100093.81;;;12.90;100.00
13348;BME280;6743;49.934;9.138;2023-11-19T12:09:33;100102.47;;;12.92;100.00
13348;BME280;6743;49.934;9.138;2023-11-19T12:12:19;100099.22;;;12.96;100.00
13348;BME280;6743;49.934;9.138;2023-11-19T12:15:06;100094.56;;;12.98;100.00
13348;BME280;6743;49.934;9.138;2023-11-19T12:17:42;100088.22;;;12.99;100.00
13348;BME280;6743;49.934;9.138;2023-11-19T12:20:10;100070.22;;;13.01;100.00
13348;BME280;6743;49.934;9.138;2023-11-19T12:22:37;100077.44;;;13.08;100.00
13348;BME280;6743;49.934;9.138;2023-11-19T12:25:05;100073.44;;;13.12;100.00
13348;BME280;6743;49.934;9.138;2023-11-19T12:27:32;100068.78;;;13.14;100.00
13348;BME280;6743;49.934;9.138;2023-11-19T12:29:59;100070.87;;;13.18;100.00
13348;BME280;6743;49.934;9.138;2023-11-19T12:32:25;100064.72;;;13.18;100.00
13348;BME280;6743;49.934;9.138;2023-11-19T12:34:51;100064.53;;;13.19;100.00
13348;BME280;6743;49.934;9.138;2023-11-19T12:37:17;100053.50;;;13.22;100.00
13348;BME280;6743;49.934;9.138;2023-11-19T12:39:45;100056.25;;;13.29;100.00
13348;BME280;6743;49.934;9.138;2023-11-19T12:42:11;100040.53;;;13.34;100.00
13348;BME280;6743;49.934;9.138;2023-11-19T12:44:38;100043.63;;;13.37;100.00
13348;BME280;6743;49.934;9.138;2023-11-19T12:47:05;100054.00;;;13.47;100.00
13348;BME280;6743;49.934;9.138;2023-11-19T12:49:32;100047.34;;;13.58;100.00
13348;BME280;6743;49.934;9.138;2023-11-19T12:51:58;100047.94;;;13.74;100.00
13348;BME280;6743;49.934;9.138;2023-11-19T12:54:33;100023.75;;;13.76;100.00
13348;BME280;6743;49.934;9.138;2023-11-19T12:57:00;100035.59;;;13.95;100.00
13348;BME280;6743;49.934;9.138;2023-11-19T12:59:26;100045.75;;;14.06;100.00
13348;BME280;6743;49.934;9.138;2023-11-19T13:01:56;100037.44;;;14.15;100.00
13348;BME280;6743;49.934;9.138;2023-11-19T13:04:22;100041.16;;;14.21;100.00
13348;BME280;6743;49.934;9.138;2023-11-19T13:06:50;100044.66;;;14.22;100.00
13348;BME280;6743;49.934;9.138;2023-11-19T13:09:22;100049.03;;;14.29;100.00
13348;BME280;6743;49.934;9.138;2023-11-19T13:11:51;100049.44;;;14.33;100.00
13348;BME280;6743;49.934;9.138;2023-11-19T13:14:18;100055.88;;;14.38;100.00
13348;BME280;6743;49.934;9.138;2023-11-19T13:16:45;100057.37;;;14.47;100.00